YM Kaohsiung — MCGF6 — position and weather

sailwx.info

Track history (hours):
 
Tides and Currents Weather Stations Pressure Air Temp Water Temp Dewpoint Dewpoint Depression Visibility Wind Speed Wind Dir Waves Ship Positions

YM Kaohsiung

Last reported at 2014-Jul-28 00:07 UTC. Time now 2014-Jul-30 15:11 UTC.
Position N 34°31' W 129°02'.

Length 260 m; draft 10.1 m.

Type: Cargo ship. MMSI: 235767000.

Date/timePositionNaut miles runAvg speedWind from/ knotsBaromVisibWave heightAir tempDewpointWater temp
2014-Jul-28 00:07N 34°31' W 129°02'813.2
2014-Jul-27 23:29N 34°27' W 128°54'3913.2
2014-Jul-27 20:33N 34°03' W 128°16'1813.1
2014-Jul-27 19:09N 33°52' W 127°59'912.9
2014-Jul-27 18:25N 33°47' W 127°50'2613.1
2014-Jul-27 16:25N 33°31' W 127°24'11113.3
2014-Jul-27 08:04N 32°26' W 125°37'1113.4
2014-Jul-27 07:16N 32°19' W 125°27'5613.3
2014-Jul-27 03:04N 31°45' W 124°35'1113.4
2014-Jul-27 02:13N 31°38' W 124°24'1013.2
2014-Jul-27 01:27N 31°32' W 124°15'1813.5
2014-Jul-27 00:08N 31°21' W 123°58'2513.4
2014-Jul-26 22:16N 31°05' W 123°36'1013.3
2014-Jul-26 21:32N 30°59' W 123°27'1313.3
2014-Jul-26 20:33N 30°51' W 123°15'1313.3
2014-Jul-26 19:33N 30°43' W 123°03'1313.6
2014-Jul-26 18:33N 30°34' W 122°50'1513.6
2014-Jul-26 17:28N 30°25' W 122°37'1313.7
2014-Jul-26 16:33N 30°17' W 122°25'1413.5
2014-Jul-26 15:33N 30°09' W 122°13'1413.6
2014-Jul-26 14:33N 30°00' W 122°01'1313.5
2014-Jul-26 13:33N 29°52' W 121°48'1313.3
2014-Jul-26 12:33N 29°45' W 121°36'1413.4
2014-Jul-26 11:33N 29°37' W 121°23'2713.4
2014-Jul-26 09:33N 29°21' W 120°59'1913.5
2014-Jul-26 08:10N 29°10' W 120°41'813.6
2014-Jul-26 07:33N 29°05' W 120°33'1413.8
2014-Jul-26 06:33N 28°57' W 120°21'1413.7
2014-Jul-26 05:34N 28°49' W 120°08'1413.8
2014-Jul-26 04:33N 28°41' W 119°55'1413.7
2014-Jul-26 03:34N 28°32' W 119°43'1513.7
2014-Jul-26 02:27N 28°23' W 119°29'1313.7
2014-Jul-26 01:30N 28°15' W 119°17'1314.0
2014-Jul-26 00:33N 28°08' W 119°05'1514.0
2014-Jul-25 23:31N 27°59' W 118°52'21913.3
2014-Jul-25 07:04N 25°51' W 115°33'612.9
2014-Jul-25 06:33N 25°47' W 115°27'1713.0
2014-Jul-25 05:13N 25°37' W 115°12'913.2
2014-Jul-25 04:33N 25°31' W 115°04'1413.4
2014-Jul-25 03:31N 25°23' W 114°52'1313.5
2014-Jul-25 02:33N 25°15' W 114°41'1413.8
2014-Jul-25 01:33N 25°07' W 114°28'1413.6
2014-Jul-25 00:33N 24°59' W 114°16'1413.5
2014-Jul-24 23:29N 24°50' W 114°04'  
Track history (hours):
 
Tides and Currents Weather Stations Pressure Air Temp Water Temp Dewpoint Dewpoint Depression Visibility Wind Speed Wind Dir Waves Ship Positions

YM Kaohsiung

Last reported at 2014-Jul-28 00:07 UTC. Time now 2014-Jul-30 15:11 UTC.
Position N 34°31' W 129°02'.

Length 260 m; draft 10.1 m.

Type: Cargo ship. MMSI: 235767000.

Date/timePositionNaut miles runAvg speedWind from/ knotsBaromVisibWave heightAir tempDewpointWater temp
2014-Jul-28 00:07N 34°31' W 129°02'813.2
2014-Jul-27 23:29N 34°27' W 128°54'3913.2
2014-Jul-27 20:33N 34°03' W 128°16'1813.1
2014-Jul-27 19:09N 33°52' W 127°59'912.9
2014-Jul-27 18:25N 33°47' W 127°50'2613.1
2014-Jul-27 16:25N 33°31' W 127°24'11113.3
2014-Jul-27 08:04N 32°26' W 125°37'1113.4
2014-Jul-27 07:16N 32°19' W 125°27'5613.3
2014-Jul-27 03:04N 31°45' W 124°35'1113.4
2014-Jul-27 02:13N 31°38' W 124°24'1013.2
2014-Jul-27 01:27N 31°32' W 124°15'1813.5
2014-Jul-27 00:08N 31°21' W 123°58'2513.4
2014-Jul-26 22:16N 31°05' W 123°36'1013.3
2014-Jul-26 21:32N 30°59' W 123°27'1313.3
2014-Jul-26 20:33N 30°51' W 123°15'1313.3
2014-Jul-26 19:33N 30°43' W 123°03'1313.6
2014-Jul-26 18:33N 30°34' W 122°50'1513.6
2014-Jul-26 17:28N 30°25' W 122°37'1313.7
2014-Jul-26 16:33N 30°17' W 122°25'1413.5
2014-Jul-26 15:33N 30°09' W 122°13'1413.6
2014-Jul-26 14:33N 30°00' W 122°01'1313.5
2014-Jul-26 13:33N 29°52' W 121°48'1313.3
2014-Jul-26 12:33N 29°45' W 121°36'1413.4
2014-Jul-26 11:33N 29°37' W 121°23'2713.4
2014-Jul-26 09:33N 29°21' W 120°59'1913.5
2014-Jul-26 08:10N 29°10' W 120°41'813.6
2014-Jul-26 07:33N 29°05' W 120°33'1413.8
2014-Jul-26 06:33N 28°57' W 120°21'1413.7
2014-Jul-26 05:34N 28°49' W 120°08'1413.8
2014-Jul-26 04:33N 28°41' W 119°55'1413.7
2014-Jul-26 03:34N 28°32' W 119°43'1513.7
2014-Jul-26 02:27N 28°23' W 119°29'1313.7
2014-Jul-26 01:30N 28°15' W 119°17'1314.0
2014-Jul-26 00:33N 28°08' W 119°05'1514.0
2014-Jul-25 23:31N 27°59' W 118°52'21913.3
2014-Jul-25 07:04N 25°51' W 115°33'612.9
2014-Jul-25 06:33N 25°47' W 115°27'1713.0
2014-Jul-25 05:13N 25°37' W 115°12'913.2
2014-Jul-25 04:33N 25°31' W 115°04'1413.4
2014-Jul-25 03:31N 25°23' W 114°52'1313.5
2014-Jul-25 02:33N 25°15' W 114°41'1413.8
2014-Jul-25 01:33N 25°07' W 114°28'1413.6
2014-Jul-25 00:33N 24°59' W 114°16'1413.5
2014-Jul-24 23:29N 24°50' W 114°04'  

Dump ship's entire track history